Time;durP1;ratioP1;P1;durP2;ratioP2;P2;SDS_P1;SDS_P2;PMS_P1;PMS_P2;Temp;Humidity;BMP_temperature;BMP_pressure;BME280_temperature;BME280_humidity;BME280_pressure;Samples;Min_cycle;Max_cycle;Signal;HPM_P1;HPM_P2
2022/04/24 00:01:32;;;;;;;24.20;16.67;;;10.50;99.90;;;;;;5113204;28;20051;-87
2022/04/24 00:03:57;;;;;;;;;;;10.50;99.90;;;;;;5095655;28;20028;-86
2022/04/24 00:06:23;;;;;;;24.60;16.98;;;10.50;99.90;;;;;;5112862;28;19942;-86
2022/04/24 00:08:49;;;;;;;;;;;10.50;99.90;;;;;;5094869;28;20027;-84
2022/04/24 00:11:16;;;;;;;24.88;16.33;;;10.60;99.90;;;;;;5112406;28;19982;-85
2022/04/24 00:13:42;;;;;;;21.00;16.52;;;10.60;99.90;;;;;;5095993;28;20131;-83
2022/04/24 00:16:08;;;;;;;;;;;10.50;99.90;;;;;;5098869;28;20042;-83
2022/04/24 00:18:35;;;;;;;21.25;16.73;;;10.50;99.90;;;;;;5098573;28;19903;-84
2022/04/24 00:21:01;;;;;;;21.98;16.05;;;10.40;99.90;;;;;;5098566;28;20016;-84
2022/04/24 00:23:28;;;;;;;19.90;15.57;;;10.50;99.90;;;;;;5098867;28;20583;-86
2022/04/24 00:25:54;;;;;;;23.25;15.25;;;10.50;99.90;;;;;;5099070;28;20416;-85
2022/04/24 00:28:19;;;;;;;;;;;10.50;99.90;;;;;;5099187;28;20032;-85
2022/04/24 00:30:45;;;;;;;20.25;15.77;;;10.40;99.90;;;;;;5116598;28;19965;-85
2022/04/24 00:33:11;;;;;;;;;;;10.30;99.90;;;;;;5116660;28;20035;-85
2022/04/24 00:35:36;;;;;;;19.67;15.18;;;10.30;99.90;;;;;;5116558;28;20333;-85
2022/04/24 00:38:02;;;;;;;;;;;10.20;99.90;;;;;;5098387;28;20081;-84
2022/04/24 00:40:27;;;;;;;20.90;15.85;;;10.20;99.90;;;;;;5098430;28;20364;-85
2022/04/24 00:42:53;;;;;;;;;;;10.20;99.90;;;;;;5098470;28;20128;-85
2022/04/24 00:45:19;;;;;;;24.38;17.45;;;10.20;99.90;;;;;;5098429;28;19966;-86
2022/04/24 00:47:44;;;;;;;;;;;10.20;99.90;;;;;;5116844;28;20023;-86
2022/04/24 00:50:11;;;;;;;25.25;17.98;;;10.30;99.90;;;;;;5098338;28;19903;-84
2022/04/24 00:52:38;;;;;;;23.52;18.45;;;10.30;99.90;;;;;;5098192;28;20027;-85
2022/04/24 00:55:05;;;;;;;27.92;18.45;;;10.20;99.90;;;;;;5088521;28;20055;-85
2022/04/24 00:57:31;;;;;;;24.75;18.50;;;10.20;99.90;;;;;;5073861;28;20029;-85
2022/04/24 00:59:56;;;;;;;;;;;10.20;99.90;;;;;;5074530;28;20043;-85
2022/04/24 01:02:23;;;;;;;24.50;16.73;;;10.20;99.90;;;;;;5091506;28;19962;-85
2022/04/24 01:04:48;;;;;;;23.55;18.40;;;10.20;99.90;;;;;;5075677;28;20737;-85
2022/04/24 01:07:14;;;;;;;;;;;10.30;99.90;;;;;;5074455;28;20032;-85
2022/04/24 01:09:40;;;;;;;23.60;15.82;;;10.30;99.90;;;;;;5075506;28;19904;-85
2022/04/24 01:12:06;;;;;;;;;;;10.40;99.90;;;;;;5074569;28;20021;-85
2022/04/24 01:14:33;;;;;;;21.92;16.70;;;10.30;99.90;;;;;;5075368;28;19958;-86
2022/04/24 01:17:00;;;;;;;25.83;17.17;;;10.30;99.90;;;;;;5075144;28;20036;-83
2022/04/24 01:19:27;;;;;;;26.45;16.40;;;10.30;99.90;;;;;;5073722;28;20393;-85
2022/04/24 01:21:53;;;;;;;22.80;16.15;;;10.30;99.90;;;;;;5071340;28;20036;-85
2022/04/24 01:24:22;;;;;;;21.63;16.92;;;10.20;99.90;;;;;;5073238;28;20032;-85
2022/04/24 01:26:48;;;;;;;23.60;16.17;;;10.30;99.90;;;;;;5073243;28;20534;-85
2022/04/24 01:29:14;;;;;;;23.98;16.77;;;10.20;99.90;;;;;;5073454;28;20025;-85
2022/04/24 01:31:41;;;;;;;21.30;15.55;;;10.20;99.90;;;;;;5073879;28;20033;-85
2022/04/24 01:34:07;;;;;;;25.88;16.67;;;10.30;99.90;;;;;;5072669;28;20028;-85
2022/04/24 01:36:33;;;;;;;;;;;10.30;99.90;;;;;;5075189;28;20493;-85
2022/04/24 01:38:59;;;;;;;23.23;15.50;;;10.20;99.90;;;;;;5090485;28;19905;-86
2022/04/24 01:41:24;;;;;;;;;;;10.20;99.90;;;;;;5074115;28;20040;-84
2022/04/24 01:43:50;;;;;;;25.15;16.17;;;10.20;99.90;;;;;;5090080;28;19912;-84
2022/04/24 01:46:16;;;;;;;;;;;10.10;99.90;;;;;;5074993;28;20028;-85
2022/04/24 01:48:41;;;;;;;20.00;14.68;;;10.20;99.90;;;;;;5090342;28;20360;-86
2022/04/24 01:51:08;;;;;;;;;;;10.10;99.90;;;;;;5073621;28;20126;-85
2022/04/24 01:53:34;;;;;;;21.60;15.60;;;10.20;99.90;;;;;;5074859;28;19904;-85
2022/04/24 01:56:02;;;;;;;20.98;15.07;;;10.10;99.90;;;;;;5073118;28;20055;-85
2022/04/24 01:58:28;;;;;;;20.80;15.30;;;10.20;99.90;;;;;;5073038;28;20021;-85
2022/04/24 02:00:54;;;;;;;;;;;10.10;99.90;;;;;;5073432;28;20021;-85
2022/04/24 02:03:21;;;;;;;19.25;14.25;;;10.10;99.90;;;;;;5090233;28;19999;-85
2022/04/24 02:05:48;;;;;;;21.63;14.65;;;10.10;99.90;;;;;;5074316;28;20036;-85
2022/04/24 02:08:14;;;;;;;18.60;13.60;;;10.20;99.90;;;;;;5073556;28;20017;-85
2022/04/24 02:10:40;;;;;;;;;;;10.20;99.90;;;;;;5073703;28;20024;-85
2022/04/24 02:13:06;;;;;;;22.70;14.40;;;10.30;99.90;;;;;;5090087;28;20436;-85
2022/04/24 02:15:31;;;;;;;;;;;10.20;99.90;;;;;;5073006;28;20028;-85
2022/04/24 02:17:57;;;;;;;23.80;15.43;;;10.20;99.90;;;;;;5089462;28;19915;-85
2022/04/24 02:20:23;;;;;;;;;;;10.30;99.90;;;;;;5073034;28;20035;-85
2022/04/24 02:22:49;;;;;;;20.92;14.65;;;10.30;99.90;;;;;;5074209;28;19915;-85
2022/04/24 02:25:15;;;;;;;;;;;10.30;99.90;;;;;;5073008;28;20029;-85
2022/04/24 02:27:41;;;;;;;20.27;15.63;;;10.30;99.90;;;;;;5089755;28;19939;-85
2022/04/24 02:30:08;;;;;;;22.73;16.02;;;10.30;99.90;;;;;;5072870;28;20036;-85
2022/04/24 02:32:33;;;;;;;20.38;15.10;;;10.30;99.90;;;;;;5072428;28;20044;-85
2022/04/24 02:34:59;;;;;;;;;;;10.30;99.90;;;;;;5072397;28;20562;-85
2022/04/24 02:37:25;;;;;;;21.08;15.38;;;10.20;99.90;;;;;;5089119;28;19919;-84
2022/04/24 02:39:52;;;;;;;25.65;17.92;;;10.20;99.90;;;;;;5071996;28;20115;-84
2022/04/24 02:42:18;;;;;;;22.88;17.08;;;10.10;99.90;;;;;;5071805;28;20033;-83
2022/04/24 02:44:44;;;;;;;;;;;10.10;99.90;;;;;;5071992;28;20632;-84
2022/04/24 02:47:10;;;;;;;18.65;14.05;;;10.10;99.90;;;;;;5072867;28;19911;-84
2022/04/24 02:49:35;;;;;;;;;;;10.20;99.90;;;;;;5071890;28;20489;-84
2022/04/24 02:52:01;;;;;;;16.48;13.00;;;10.20;99.90;;;;;;5088213;28;19904;-83
2022/04/24 02:54:26;;;;;;;;;;;10.30;99.90;;;;;;5073060;28;20404;-84
2022/04/24 02:56:52;;;;;;;21.08;14.10;;;10.20;99.90;;;;;;5095056;28;19911;-83
2022/04/24 02:59:18;;;;;;;;;;;10.10;99.90;;;;;;5095662;28;20081;-84
2022/04/24 03:01:45;;;;;;;22.67;15.82;;;10.10;99.90;;;;;;5095103;28;20019;-84
2022/04/24 03:04:11;;;;;;;22.52;16.00;;;10.10;99.90;;;;;;5094881;28;20512;-83
2022/04/24 03:06:37;;;;;;;19.00;15.15;;;10.00;99.90;;;;;;5112925;28;20407;-84
2022/04/24 03:09:04;;;;;;;24.05;16.33;;;10.00;99.90;;;;;;5094706;28;20023;-84
2022/04/24 03:11:30;;;;;;;25.65;16.33;;;10.10;99.90;;;;;;5095042;28;20047;-84
2022/04/24 03:13:55;;;;;;;;;;;10.10;99.90;;;;;;5095089;28;20073;-82
2022/04/24 03:16:21;;;;;;;15.73;11.07;;;10.10;99.90;;;;;;5112739;28;20295;-83
2022/04/24 03:18:46;;;;;;;;;;;10.00;99.90;;;;;;5097148;28;20495;-83
2022/04/24 03:21:12;;;;;;;12.25;9.43;;;10.00;99.90;;;;;;5093592;28;19914;-83
2022/04/24 03:23:37;;;;;;;;;;;10.00;99.90;;;;;;5094955;28;20141;-84
2022/04/24 03:26:03;;;;;;;14.13;9.82;;;10.10;99.90;;;;;;5094887;28;19904;-84
2022/04/24 03:28:29;;;;;;;;;;;10.00;99.90;;;;;;5113361;28;20491;-83
2022/04/24 03:30:54;;;;;;;18.30;13.73;;;10.00;99.90;;;;;;5094331;28;20333;-84
2022/04/24 03:33:20;;;;;;;;;;;10.00;99.90;;;;;;5095305;28;20065;-84
2022/04/24 03:35:46;;;;;;;18.45;12.25;;;10.00;99.90;;;;;;5094736;28;19943;-84
2022/04/24 03:38:11;;;;;;;;;;;10.00;99.90;;;;;;5094911;28;20051;-84
2022/04/24 03:40:37;;;;;;;16.33;10.95;;;10.00;99.90;;;;;;5113046;28;20411;-84
2022/04/24 03:43:03;;;;;;;;;;;10.10;99.90;;;;;;5095404;28;20395;-84
2022/04/24 03:45:28;;;;;;;14.75;11.40;;;10.20;99.90;;;;;;5094629;28;19904;-83
2022/04/24 03:47:54;;;;;;;;;;;10.20;99.90;;;;;;5094031;28;20433;-83
2022/04/24 03:50:20;;;;;;;17.05;13.27;;;10.10;99.90;;;;;;5112030;28;19908;-83
2022/04/24 03:52:46;;;;;;;;;;;10.00;99.90;;;;;;5111193;28;20039;-83
2022/04/24 03:55:11;;;;;;;18.17;13.93;;;10.10;99.90;;;;;;5108863;28;19919;-84
2022/04/24 03:57:37;;;;;;;;;;;10.00;99.90;;;;;;5094411;28;20407;-84
2022/04/24 04:00:05;;;;;;;20.83;15.15;;;10.00;99.90;;;;;;5093750;28;19904;-83
2022/04/24 04:02:31;;;;;;;22.52;14.93;;;10.00;99.90;;;;;;5093899;28;20027;-84
2022/04/24 04:04:57;;;;;;;21.40;14.85;;;9.90;99.90;;;;;;5093625;28;20024;-83
2022/04/24 04:07:23;;;;;;;25.13;17.27;;;9.80;99.90;;;;;;5093502;28;20028;-84
2022/04/24 04:09:49;;;;;;;;;;;9.80;99.90;;;;;;5094100;28;20023;-83
2022/04/24 04:12:15;;;;;;;21.30;16.05;;;9.80;99.90;;;;;;5093515;28;19912;-82
2022/04/24 04:14:40;;;;;;;;;;;9.70;99.90;;;;;;5093617;28;20063;-83
2022/04/24 04:17:08;;;;;;;19.88;14.90;;;9.70;99.90;;;;;;5093163;28;20304;-83
2022/04/24 04:19:34;;;;;;;19.08;15.13;;;9.70;99.90;;;;;;5093611;28;20023;-84
2022/04/24 04:22:00;;;;;;;;;;;9.80;99.90;;;;;;5093545;28;20042;-82
2022/04/24 04:24:25;;;;;;;19.88;14.18;;;9.80;99.90;;;;;;5093348;28;19903;-83
2022/04/24 04:26:51;;;;;;;;;;;9.80;99.90;;;;;;5092857;28;20612;-82
2022/04/24 04:29:17;;;;;;;20.90;15.13;;;9.80;99.90;;;;;;5092693;28;19908;-82
2022/04/24 04:31:42;;;;;;;;;;;9.80;99.90;;;;;;5106107;28;20796;-83
2022/04/24 04:34:08;;;;;;;21.85;16.20;;;9.80;99.90;;;;;;5098983;28;19950;-82
2022/04/24 04:36:33;;;;;;;;;;;9.80;99.90;;;;;;5096187;28;20843;-83
2022/04/24 04:38:59;;;;;;;20.95;15.30;;;9.80;99.90;;;;;;5099415;28;19912;-83
2022/04/24 04:41:24;;;;;;;;;;;9.90;99.90;;;;;;5096708;28;20050;-83
2022/04/24 04:43:50;;;;;;;18.75;13.43;;;10.00;99.90;;;;;;5102036;28;19911;-82
2022/04/24 04:46:16;;;;;;;;;;;10.20;99.90;;;;;;5096322;28;20044;-83
2022/04/24 04:48:41;;;;;;;16.90;12.55;;;10.20;99.90;;;;;;5093298;28;19937;-83
2022/04/24 04:51:07;;;;;;;;;;;10.30;99.90;;;;;;5100107;28;20039;-82
2022/04/24 04:53:34;;;;;;;20.65;13.10;;;10.30;99.90;;;;;;5094610;28;19929;-82
2022/04/24 04:56:00;;;;;;;17.45;12.70;;;10.30;99.90;;;;;;5097808;28;20047;-84
2022/04/24 04:58:25;;;;;;;;;;;10.20;99.90;;;;;;5112541;28;20027;-84
2022/04/24 05:00:51;;;;;;;14.25;11.23;;;10.20;99.90;;;;;;5095322;28;19911;-83
2022/04/24 05:03:16;;;;;;;;;;;10.20;99.90;;;;;;5097436;28;20027;-84
2022/04/24 05:05:42;;;;;;;14.77;10.98;;;10.10;99.90;;;;;;5115177;28;19961;-84
2022/04/24 05:08:08;;;;;;;;;;;10.30;99.90;;;;;;5096304;28;20028;-83
2022/04/24 05:10:33;;;;;;;18.50;12.95;;;10.30;99.90;;;;;;5096313;28;19903;-81
2022/04/24 05:12:59;;;;;;;;;;;10.20;99.90;;;;;;5113958;28;20027;-83
2022/04/24 05:15:25;;;;;;;16.60;12.30;;;10.10;99.90;;;;;;5097075;28;20392;-83
2022/04/24 05:17:52;;;;;;;20.23;12.70;;;10.20;99.90;;;;;;5097120;28;20122;-84
2022/04/24 05:20:18;;;;;;;16.60;12.07;;;10.20;99.90;;;;;;5097050;28;20034;-83
2022/04/24 05:22:43;;;;;;;;;;;10.30;99.90;;;;;;5097452;28;20118;-83
2022/04/24 05:25:12;;;;;;;16.23;12.60;;;10.50;99.90;;;;;;5115516;28;19904;-83
2022/04/24 05:27:38;;;;;;;17.38;12.60;;;10.50;99.90;;;;;;5096995;28;20106;-83
2022/04/24 05:30:07;;;;;;;16.00;11.70;;;10.60;99.90;;;;;;5094936;28;20027;-84
2022/04/24 05:32:47;;;;;;;15.05;11.80;;;10.60;99.90;;;;;;5096858;28;20015;-85
2022/04/24 05:35:13;;;;;;;16.10;11.65;;;10.60;99.90;;;;;;5097018;28;20123;-84
2022/04/24 05:37:40;;;;;;;16.23;12.38;;;10.70;99.90;;;;;;5097306;28;20036;-84
2022/04/24 05:40:06;;;;;;;15.20;11.95;;;10.80;99.90;;;;;;5096951;28;20024;-85
2022/04/24 05:42:33;;;;;;;16.80;13.15;;;10.80;99.90;;;;;;5097314;28;20027;-85
2022/04/24 05:45:04;;;;;;;16.80;13.43;;;10.70;99.90;;;;;;5097402;28;20032;-85
2022/04/24 05:47:30;;;;;;;16.15;12.50;;;10.70;99.90;;;;;;5115190;28;20020;-81
2022/04/24 05:49:55;;;;;;;;;;;10.70;99.90;;;;;;5096068;28;20392;-83
2022/04/24 05:52:21;;;;;;;18.05;13.07;;;10.80;99.90;;;;;;5096486;28;19942;-83
2022/04/24 05:54:47;;;;;;;;;;;10.80;99.90;;;;;;5096259;28;20083;-83
2022/04/24 05:57:13;;;;;;;15.07;11.65;;;10.90;99.90;;;;;;5095551;28;19916;-82
2022/04/24 05:59:38;;;;;;;;;;;11.00;99.90;;;;;;5096072;28;20507;-83
2022/04/24 06:02:04;;;;;;;14.60;11.10;;;11.00;99.90;;;;;;5096603;28;19908;-84
2022/04/24 06:04:30;;;;;;;;;;;11.30;99.90;;;;;;5096740;28;20088;-83
2022/04/24 06:06:55;;;;;;;15.10;12.05;;;11.60;99.90;;;;;;5095525;28;19918;-84
2022/04/24 06:09:21;;;;;;;;;;;11.60;99.90;;;;;;5112528;28;20020;-83
2022/04/24 06:11:46;;;;;;;16.27;12.90;;;11.70;99.90;;;;;;5094627;28;19903;-84
2022/04/24 06:14:13;;;;;;;;;;;11.80;99.90;;;;;;5096630;28;20034;-84
2022/04/24 06:16:38;;;;;;;17.75;13.23;;;11.70;99.90;;;;;;5095835;28;20322;-83
2022/04/24 06:19:04;;;;;;;;;;;11.80;99.90;;;;;;5095993;28;20019;-84
2022/04/24 06:21:29;;;;;;;18.40;14.00;;;11.60;99.90;;;;;;5095431;28;19911;-85
2022/04/24 06:23:55;;;;;;;;;;;11.60;99.90;;;;;;5096076;28;20027;-84
2022/04/24 06:26:20;;;;;;;21.63;16.63;;;11.70;99.90;;;;;;5095924;28;19976;-85
2022/04/24 06:28:46;;;;;;;;;;;11.60;99.90;;;;;;5096920;28;20024;-85
2022/04/24 06:31:12;;;;;;;16.75;12.65;;;11.80;99.90;;;;;;5096025;28;19964;-86
2022/04/24 06:33:37;;;;;;;;;;;11.90;99.90;;;;;;5098162;28;20085;-87
2022/04/24 06:36:03;;;;;;;21.15;16.88;;;11.90;99.90;;;;;;5096812;28;19907;-79
2022/04/24 06:38:28;;;;;;;;;;;11.90;99.90;;;;;;5093417;28;20023;-81
2022/04/24 06:40:54;;;;;;;23.73;16.95;;;11.90;99.90;;;;;;5093022;28;19966;-82
2022/04/24 06:43:20;;;;;;;;;;;11.80;99.90;;;;;;5093576;28;20514;-82
2022/04/24 06:45:45;;;;;;;22.73;19.63;;;11.90;99.90;;;;;;5093134;28;19904;-82
2022/04/24 06:48:12;;;;;;;;;;;12.00;99.90;;;;;;5112930;28;20027;-83
2022/04/24 06:50:40;;;;;;;30.90;23.93;;;12.20;99.90;;;;;;5095886;28;20364;-85
2022/04/24 06:53:09;;;;;;;27.00;21.13;;;12.20;99.90;;;;;;5095780;28;20376;-84
2022/04/24 06:55:37;;;;;;;21.70;18.05;;;12.10;99.90;;;;;;5112671;28;20047;-84
2022/04/24 06:58:04;;;;;;;24.70;18.33;;;12.10;99.90;;;;;;5096810;28;20053;-86
2022/04/24 07:00:32;;;;;;;24.13;19.88;;;12.00;99.90;;;;;;5096216;28;20406;-85
2022/04/24 07:02:58;;;;;;;28.08;19.15;;;11.80;99.90;;;;;;5095332;28;20492;-85
2022/04/24 07:05:24;;;;;;;;;;;11.80;99.90;;;;;;5096017;28;20045;-84
2022/04/24 07:07:51;;;;;;;27.67;21.25;;;11.70;99.90;;;;;;5095071;28;19965;-84
2022/04/24 07:10:17;;;;;;;25.88;22.75;;;11.90;99.90;;;;;;5095073;28;20063;-85
2022/04/24 07:12:43;;;;;;;;;;;11.80;99.90;;;;;;5095226;28;20027;-84
2022/04/24 07:15:09;;;;;;;29.47;23.13;;;11.90;99.90;;;;;;5094809;28;19914;-84
2022/04/24 07:17:34;;;;;;;;;;;11.90;99.90;;;;;;5094748;28;20370;-84
2022/04/24 07:20:00;;;;;;;32.10;22.63;;;11.80;99.90;;;;;;5094022;28;19943;-85
2022/04/24 07:22:25;;;;;;;;;;;12.10;99.90;;;;;;5096214;28;20055;-86
2022/04/24 07:24:51;;;;;;;26.52;20.98;;;12.20;99.90;;;;;;5113588;28;19911;-85
2022/04/24 07:27:16;;;;;;;;;;;12.30;99.90;;;;;;5094926;28;20027;-83
2022/04/24 07:29:42;;;;;;;32.33;22.33;;;12.30;99.90;;;;;;5094607;28;19904;-83
2022/04/24 07:32:08;;;;;;;;;;;12.30;99.90;;;;;;5095305;28;20028;-84
2022/04/24 07:34:33;;;;;;;31.77;23.00;;;12.40;99.90;;;;;;5094735;28;19904;-84
2022/04/24 07:36:59;;;;;;;;;;;12.50;99.90;;;;;;5094571;28;20042;-84
2022/04/24 07:39:25;;;;;;;51.83;30.77;;;12.60;99.90;;;;;;5094117;28;19946;-83
2022/04/24 07:41:50;;;;;;;;;;;12.80;99.90;;;;;;5112993;28;20034;-83
2022/04/24 07:44:16;;;;;;;37.90;26.40;;;12.70;99.90;;;;;;5094106;28;19904;-84
2022/04/24 07:46:41;;;;;;;;;;;12.60;99.90;;;;;;5094323;28;20503;-83
2022/04/24 07:49:07;;;;;;;34.45;25.63;;;12.60;99.90;;;;;;5111802;28;20321;-83
2022/04/24 07:51:33;;;;;;;;;;;12.50;99.90;;;;;;5094383;28;20477;-83
2022/04/24 07:53:58;;;;;;;39.30;27.15;;;12.50;99.90;;;;;;5093688;28;19957;-83
2022/04/24 07:56:25;;;;;;;;;;;12.60;99.90;;;;;;5112007;28;20051;-84
2022/04/24 07:58:50;;;;;;;35.50;26.88;;;12.80;99.90;;;;;;5094046;28;19908;-83
2022/04/24 08:01:17;;;;;;;;;;;12.80;99.90;;;;;;5093874;28;20648;-84
2022/04/24 08:03:43;;;;;;;38.90;30.25;;;12.70;99.90;;;;;;5093904;28;19904;-84
2022/04/24 08:06:08;;;;;;;;;;;12.90;99.90;;;;;;5112362;28;20032;-84
2022/04/24 08:08:34;;;;;;;40.08;31.35;;;13.00;99.90;;;;;;5093570;28;19969;-83
2022/04/24 08:11:00;;;;;;;;;;;12.90;99.90;;;;;;5093693;28;20507;-83
2022/04/24 08:13:26;;;;;;;38.40;29.52;;;13.00;99.90;;;;;;5093890;28;19985;-85
2022/04/24 08:15:53;;;;;;;32.97;28.00;;;13.40;99.90;;;;;;5094493;28;20476;-84
2022/04/24 08:18:19;;;;;;;34.08;28.02;;;13.50;99.90;;;;;;5095197;28;20067;-86
2022/04/24 08:20:45;;;;;;;38.25;28.80;;;13.70;99.90;;;;;;5094516;28;20030;-82
2022/04/24 08:23:13;;;;;;;36.38;30.08;;;14.10;99.90;;;;;;5110137;28;20022;-82
2022/04/24 08:25:39;;;;;;;32.13;26.58;;;14.20;99.90;;;;;;5111560;28;20020;-87
2022/04/24 08:28:10;;;;;;;30.67;25.02;;;14.40;99.90;;;;;;5111763;28;20058;-86
2022/04/24 08:30:41;;;;;;;30.35;23.48;;;14.30;99.90;;;;;;5094220;28;20026;-85
2022/04/24 08:33:06;;;;;;;29.08;23.73;;;14.20;99.90;;;;;;5094705;28;20032;-86
2022/04/24 08:35:32;;;;;;;;;;;14.30;99.90;;;;;;5097464;28;20606;-85
2022/04/24 08:37:58;;;;;;;28.45;23.00;;;14.50;99.90;;;;;;5099128;28;20355;-85
2022/04/24 08:40:24;;;;;;;34.03;24.48;;;14.50;99.90;;;;;;5097951;28;20036;-85
2022/04/24 08:42:50;;;;;;;;;;;14.40;99.90;;;;;;5097631;28;20023;-84
2022/04/24 08:45:16;;;;;;;38.65;28.35;;;14.40;99.90;;;;;;5096873;28;19949;-85
2022/04/24 08:47:43;;;;;;;47.38;34.28;;;14.20;99.90;;;;;;5096526;28;20032;-86
2022/04/24 08:50:10;;;;;;;29.52;23.38;;;14.00;99.90;;;;;;5114905;28;20016;-86
2022/04/24 08:52:37;;;;;;;30.33;24.48;;;14.20;99.90;;;;;;5115674;28;20055;-86
2022/04/24 08:55:04;;;;;;;30.23;26.08;;;14.10;99.90;;;;;;5115740;28;20134;-86
2022/04/24 08:57:30;;;;;;;31.90;25.70;;;14.20;99.90;;;;;;5097851;28;20027;-85
2022/04/24 09:00:00;;;;;;;33.67;28.50;;;14.20;99.90;;;;;;5098085;28;20028;-85
2022/04/24 09:02:27;;;;;;;35.22;27.88;;;14.80;99.90;;;;;;5114943;28;20132;-82
2022/04/24 09:04:53;;;;;;;29.75;24.67;;;15.00;99.90;;;;;;5095657;28;20035;-83
2022/04/24 09:07:20;;;;;;;37.08;24.80;;;15.20;99.90;;;;;;5095976;28;20065;-84
2022/04/24 09:09:48;;;;;;;27.73;23.00;;;15.30;99.90;;;;;;5097451;28;20081;-84
2022/04/24 09:12:17;;;;;;;28.98;23.50;;;15.50;99.90;;;;;;5097361;28;20062;-84
2022/04/24 09:14:50;;;;;;;29.00;23.65;;;15.40;99.90;;;;;;5115786;28;20081;-85
2022/04/24 09:17:17;;;;;;;29.45;23.75;;;15.50;99.90;;;;;;5097044;28;20035;-84
2022/04/24 09:19:44;;;;;;;27.60;23.02;;;15.50;99.90;;;;;;5097098;28;20084;-84
2022/04/24 09:22:10;;;;;;;30.90;25.83;;;15.60;99.90;;;;;;5095570;28;20024;-83
2022/04/24 09:24:52;;;;;;;30.83;25.42;;;15.50;99.90;;;;;;5114031;28;20492;-82
2022/04/24 09:27:25;;;;;;;28.17;24.45;;;15.50;99.90;;;;;;5113968;28;20356;-83
2022/04/24 09:29:54;;;;;;;27.63;23.35;;;15.40;99.90;;;;;;5095577;28;20030;-82
2022/04/24 09:32:20;;;;;;;31.13;25.65;;;15.40;99.90;;;;;;5113268;28;20055;-83
2022/04/24 09:34:46;;;;;;;26.73;23.25;;;15.70;99.90;;;;;;5094787;28;20492;-83
2022/04/24 09:37:12;;;;;;;25.15;21.00;;;16.00;99.90;;;;;;5094800;28;20042;-82
2022/04/24 09:39:38;;;;;;;23.58;20.05;;;16.50;99.90;;;;;;5094647;28;20023;-83
2022/04/24 09:42:14;;;;;;;24.52;21.35;;;17.00;99.90;;;;;;5094618;28;20530;-82
2022/04/24 09:44:43;;;;;;;24.10;20.93;;;17.70;99.90;;;;;;5094439;28;20057;-82
2022/04/24 09:47:09;;;;;;;26.08;20.27;;;18.20;99.90;;;;;;5093761;28;20073;-83
2022/04/24 09:49:42;;;;;;;23.33;20.73;;;18.60;99.90;;;;;;5113421;28;20137;-84
2022/04/24 09:52:10;;;;;;;23.23;20.63;;;18.70;99.90;;;;;;5112688;28;20054;-84
2022/04/24 09:54:41;;;;;;;23.40;20.45;;;18.30;99.90;;;;;;5096544;28;20050;-85
2022/04/24 09:57:09;;;;;;;22.05;19.65;;;18.10;99.90;;;;;;5114443;28;20028;-85
2022/04/24 09:59:36;;;;;;;21.67;18.92;;;17.60;99.90;;;;;;5097027;28;20023;-85
2022/04/24 10:02:04;;;;;;;24.05;19.70;;;17.40;99.90;;;;;;5115371;28;20019;-85
2022/04/24 10:04:35;;;;;;;20.55;17.38;;;17.20;99.90;;;;;;5097056;28;20031;-85
2022/04/24 10:07:12;;;;;;;24.02;19.83;;;16.90;99.90;;;;;;5096349;28;20484;-85
2022/04/24 10:09:40;;;;;;;23.90;21.17;;;16.70;99.90;;;;;;5096896;28;20024;-87
2022/04/24 10:12:09;;;;;;;24.23;20.75;;;16.40;99.90;;;;;;5097490;28;20024;-85
2022/04/24 10:14:40;;;;;;;24.75;19.83;;;16.20;99.90;;;;;;5096871;28;20024;-85
2022/04/24 10:17:20;;;;;;;23.70;20.67;;;16.20;99.90;;;;;;5096555;28;20028;-85
2022/04/24 10:20:14;;;;;;;22.30;19.90;;;16.20;99.90;;;;;;5115229;28;20022;-86
2022/04/24 10:22:47;;;;;;;23.38;20.45;;;16.20;99.90;;;;;;5115175;28;20053;-85
2022/04/24 10:25:15;;;;;;;30.05;20.52;;;16.20;99.90;;;;;;5115252;28;20123;-86
2022/04/24 10:27:43;;;;;;;26.80;20.48;;;16.10;99.90;;;;;;5113890;28;20176;-86
2022/04/24 10:30:19;;;;;;;26.75;20.85;;;16.10;99.90;;;;;;5110371;27;20481;-84
2022/04/24 10:32:48;;;;;;;;;;;15.90;99.90;;;;;;5084448;28;20523;-85
2022/04/24 10:35:19;;;;;;;23.23;19.42;;;16.00;99.90;;;;;;5097241;27;20502;-86
2022/04/24 10:37:47;;;;;;;36.92;19.42;;;16.10;99.90;;;;;;5091772;28;20036;-85
2022/04/24 10:40:15;;;;;;;23.13;18.65;;;16.50;99.90;;;;;;5082138;28;20095;-85
2022/04/24 10:42:43;;;;;;;21.80;18.42;;;16.90;99.90;;;;;;5095672;28;20047;-84
2022/04/24 10:45:10;;;;;;;20.52;17.58;;;16.80;99.90;;;;;;5095684;28;20645;-86
2022/04/24 10:47:45;;;;;;;22.75;19.38;;;16.60;99.90;;;;;;5091432;28;20512;-84
2022/04/24 10:50:11;;;;;;;21.80;19.45;;;16.60;99.90;;;;;;5093175;28;20047;-86
2022/04/24 10:52:43;;;;;;;20.10;18.00;;;16.80;99.90;;;;;;5092649;28;20097;-85
2022/04/24 10:55:12;;;;;;;20.63;17.27;;;16.60;99.90;;;;;;5092415;28;20417;-85
2022/04/24 10:57:43;;;;;;;19.10;15.57;;;16.80;99.90;;;;;;5086440;28;20043;-86
2022/04/24 11:00:19;;;;;;;18.20;15.98;;;16.90;99.90;;;;;;5093021;28;20830;-86
2022/04/24 11:02:47;;;;;;;26.25;16.20;;;17.40;99.90;;;;;;5113769;27;20035;-87
2022/04/24 11:05:18;;;;;;;19.83;16.48;;;17.50;99.90;;;;;;5116380;27;20475;-87
2022/04/24 11:07:44;;;;;;;24.77;17.20;;;17.40;99.90;;;;;;5116747;27;20027;-87
2022/04/24 11:10:12;;;;;;;18.73;15.85;;;17.30;99.90;;;;;;5116375;27;20057;-86
2022/04/24 11:12:39;;;;;;;22.20;16.13;;;17.20;99.90;;;;;;5115655;27;20035;-87
2022/04/24 11:15:10;;;;;;;23.02;16.10;;;17.10;99.90;;;;;;5115952;27;20023;-88
2022/04/24 11:17:36;;;;;;;19.27;15.57;;;17.10;99.90;;;;;;5116054;27;20430;-87
2022/04/24 11:20:08;;;;;;;18.17;14.75;;;17.00;99.90;;;;;;5116277;27;20088;-87
2022/04/24 11:22:45;;;;;;;20.85;15.32;;;16.90;99.90;;;;;;5116340;27;20034;-87
2022/04/24 11:25:14;;;;;;;21.63;15.38;;;16.80;99.90;;;;;;5101134;28;20027;-86
2022/04/24 11:27:41;;;;;;;19.90;15.02;;;16.90;99.90;;;;;;5096025;28;20028;-87
2022/04/24 11:30:32;;;;;;;18.92;15.50;;;16.80;99.90;;;;;;5104918;27;20027;-87
2022/04/24 11:33:06;;;;;;;19.20;14.93;;;16.80;99.90;;;;;;5113493;27;20034;-87
2022/04/24 11:35:36;;;;;;;18.75;15.65;;;16.80;99.90;;;;;;5116103;27;20083;-87
2022/04/24 11:38:03;;;;;;;20.08;15.20;;;17.00;99.90;;;;;;5116140;27;20023;-87
2022/04/24 11:40:30;;;;;;;22.33;15.43;;;17.20;99.90;;;;;;5116049;27;20051;-87
2022/04/24 11:43:06;;;;;;;23.35;16.70;;;17.20;99.90;;;;;;5115782;27;20092;-87
2022/04/24 11:51:18;;;;;;;18.37;15.20;;;17.20;99.90;;;;;;5134287;27;20099;-85
2022/04/24 11:53:44;;;;;;;21.70;15.90;;;17.10;99.90;;;;;;5116242;28;20027;-87
2022/04/24 11:56:11;;;;;;;21.23;16.50;;;16.70;99.90;;;;;;5133697;27;20047;-86
2022/04/24 11:58:39;;;;;;;19.55;15.85;;;16.50;99.90;;;;;;5116074;28;20020;-87
2022/04/24 12:01:07;;;;;;;19.55;13.95;;;16.10;99.90;;;;;;5114328;28;20033;-83
2022/04/24 12:03:35;;;;;;;49.05;22.77;;;15.90;99.90;;;;;;5125504;27;20102;-83
2022/04/24 12:06:03;;;;;;;27.05;18.45;;;15.70;99.90;;;;;;5115605;28;20077;-84
2022/04/24 12:08:50;;;;;;;42.25;24.75;;;15.60;99.90;;;;;;5112049;28;20028;-82
2022/04/24 12:11:26;;;;;;;56.08;39.63;;;15.20;99.90;;;;;;5112116;28;20041;-82
2022/04/24 12:14:10;;;;;;;47.40;29.75;;;14.70;99.90;;;;;;5113579;28;20461;-83
2022/04/24 12:16:37;;;;;;;35.22;25.30;;;14.40;99.90;;;;;;5111892;28;20043;-82
2022/04/24 12:19:03;;;;;;;28.83;21.70;;;14.20;99.90;;;;;;5112216;28;20510;-84
2022/04/24 12:21:31;;;;;;;31.13;22.02;;;14.20;99.90;;;;;;5113210;28;20031;-83
2022/04/24 12:23:57;;;;;;;35.13;24.90;;;14.20;99.90;;;;;;5112544;28;20011;-83
2022/04/24 12:26:24;;;;;;;45.50;29.90;;;14.20;99.90;;;;;;5131741;28;20031;-84
2022/04/24 12:28:50;;;;;;;34.47;24.08;;;14.30;99.90;;;;;;5114170;28;20019;-83
2022/04/24 12:31:35;;;;;;;;;;;14.30;99.90;;;;;;5114395;28;20444;-85
2022/04/24 12:34:00;;;;;;;38.28;25.63;;;14.30;99.90;;;;;;5114008;28;19914;-85
2022/04/24 12:36:26;;;;;;;;;;;14.40;99.90;;;;;;5104661;28;20114;-85
2022/04/24 12:39:06;;;;;;;27.58;21.45;;;14.60;99.90;;;;;;5112574;28;19942;-85
2022/04/24 12:41:35;;;;;;;24.40;18.70;;;14.90;99.90;;;;;;5094375;28;20073;-85
2022/04/24 12:44:03;;;;;;;24.73;18.73;;;15.20;99.90;;;;;;5112798;28;20011;-85
2022/04/24 12:46:29;;;;;;;19.85;17.63;;;15.50;99.90;;;;;;5106073;28;20031;-85
2022/04/24 12:48:56;;;;;;;20.88;16.88;;;15.70;99.90;;;;;;5112192;28;20019;-85
2022/04/24 12:51:23;;;;;;;23.13;18.08;;;15.90;99.90;;;;;;5114541;28;20487;-86
2022/04/24 12:53:53;;;;;;;21.40;17.08;;;16.10;99.90;;;;;;5114624;28;20024;-87
2022/04/24 12:56:19;;;;;;;21.63;17.15;;;16.30;99.90;;;;;;5114900;28;20389;-86
2022/04/24 12:58:45;;;;;;;25.63;18.35;;;16.30;99.90;;;;;;5107425;28;20034;-87